sensor_id;sensor_type;location;lat;lon;timestamp;P1;durP1;ratioP1;P2;durP2;ratioP2
24261;SDS011;12385;51.412;5.540;2023-04-07T00:01:42;127.32;;;42.20;;
24261;SDS011;12385;51.412;5.540;2023-04-07T00:04:08;120.65;;;40.42;;
24261;SDS011;12385;51.412;5.540;2023-04-07T00:06:34;122.30;;;41.10;;
24261;SDS011;12385;51.412;5.540;2023-04-07T00:08:59;115.72;;;40.63;;
24261;SDS011;12385;51.412;5.540;2023-04-07T00:11:25;119.97;;;41.45;;
24261;SDS011;12385;51.412;5.540;2023-04-07T00:13:51;129.98;;;40.25;;
24261;SDS011;12385;51.412;5.540;2023-04-07T00:16:16;130.02;;;42.17;;
24261;SDS011;12385;51.412;5.540;2023-04-07T00:18:42;105.85;;;37.88;;
24261;SDS011;12385;51.412;5.540;2023-04-07T00:21:07;109.38;;;38.35;;
24261;SDS011;12385;51.412;5.540;2023-04-07T00:23:33;102.28;;;37.28;;
24261;SDS011;12385;51.412;5.540;2023-04-07T00:25:59;99.68;;;37.67;;
24261;SDS011;12385;51.412;5.540;2023-04-07T00:28:24;98.13;;;36.50;;
24261;SDS011;12385;51.412;5.540;2023-04-07T00:30:50;99.80;;;36.58;;
24261;SDS011;12385;51.412;5.540;2023-04-07T00:33:16;89.90;;;35.95;;
24261;SDS011;12385;51.412;5.540;2023-04-07T00:35:41;87.82;;;35.13;;
24261;SDS011;12385;51.412;5.540;2023-04-07T00:38:07;89.63;;;35.40;;
24261;SDS011;12385;51.412;5.540;2023-04-07T00:40:32;104.68;;;37.13;;
24261;SDS011;12385;51.412;5.540;2023-04-07T00:42:58;90.15;;;37.40;;
24261;SDS011;12385;51.412;5.540;2023-04-07T00:45:24;82.05;;;33.58;;
24261;SDS011;12385;51.412;5.540;2023-04-07T00:47:49;93.25;;;35.22;;
24261;SDS011;12385;51.412;5.540;2023-04-07T00:50:15;92.13;;;35.13;;
24261;SDS011;12385;51.412;5.540;2023-04-07T00:52:42;84.00;;;34.35;;
24261;SDS011;12385;51.412;5.540;2023-04-07T00:55:08;89.65;;;34.90;;
24261;SDS011;12385;51.412;5.540;2023-04-07T00:57:34;91.07;;;35.05;;
24261;SDS011;12385;51.412;5.540;2023-04-07T01:00:01;86.22;;;33.47;;
24261;SDS011;12385;51.412;5.540;2023-04-07T01:02:31;87.38;;;34.25;;
24261;SDS011;12385;51.412;5.540;2023-04-07T01:05:16;93.05;;;35.40;;
24261;SDS011;12385;51.412;5.540;2023-04-07T01:10:50;96.25;;;36.25;;
24261;SDS011;12385;51.412;5.540;2023-04-07T01:13:39;84.45;;;33.67;;
24261;SDS011;12385;51.412;5.540;2023-04-07T01:16:12;95.28;;;35.60;;
24261;SDS011;12385;51.412;5.540;2023-04-07T01:18:43;87.38;;;34.92;;
24261;SDS011;12385;51.412;5.540;2023-04-07T01:21:14;91.68;;;34.85;;
24261;SDS011;12385;51.412;5.540;2023-04-07T01:26:31;101.25;;;36.65;;
24261;SDS011;12385;51.412;5.540;2023-04-07T01:31:42;94.50;;;35.55;;
24261;SDS011;12385;51.412;5.540;2023-04-07T01:34:09;89.07;;;35.17;;
24261;SDS011;12385;51.412;5.540;2023-04-07T01:36:36;93.18;;;35.47;;
24261;SDS011;12385;51.412;5.540;2023-04-07T01:39:02;97.15;;;36.35;;
24261;SDS011;12385;51.412;5.540;2023-04-07T01:41:28;94.32;;;36.00;;
24261;SDS011;12385;51.412;5.540;2023-04-07T01:43:55;80.57;;;34.42;;
24261;SDS011;12385;51.412;5.540;2023-04-07T01:46:21;85.55;;;34.38;;
24261;SDS011;12385;51.412;5.540;2023-04-07T01:48:47;82.13;;;34.92;;
24261;SDS011;12385;51.412;5.540;2023-04-07T01:51:13;74.15;;;32.92;;
24261;SDS011;12385;51.412;5.540;2023-04-07T01:53:44;76.50;;;33.22;;
24261;SDS011;12385;51.412;5.540;2023-04-07T01:56:11;66.93;;;31.52;;
24261;SDS011;12385;51.412;5.540;2023-04-07T01:58:37;69.63;;;30.40;;
24261;SDS011;12385;51.412;5.540;2023-04-07T02:01:02;66.55;;;30.55;;
24261;SDS011;12385;51.412;5.540;2023-04-07T02:03:35;67.05;;;30.45;;
24261;SDS011;12385;51.412;5.540;2023-04-07T02:06:06;61.65;;;26.88;;
24261;SDS011;12385;51.412;5.540;2023-04-07T02:08:32;54.58;;;26.08;;
24261;SDS011;12385;51.412;5.540;2023-04-07T02:11:03;54.25;;;25.98;;
24261;SDS011;12385;51.412;5.540;2023-04-07T02:13:31;52.03;;;24.92;;
24261;SDS011;12385;51.412;5.540;2023-04-07T02:15:59;48.95;;;22.70;;
24261;SDS011;12385;51.412;5.540;2023-04-07T02:18:26;43.03;;;22.08;;
24261;SDS011;12385;51.412;5.540;2023-04-07T02:20:55;45.17;;;22.98;;
24261;SDS011;12385;51.412;5.540;2023-04-07T02:23:22;43.45;;;22.75;;
24261;SDS011;12385;51.412;5.540;2023-04-07T02:25:48;45.78;;;22.30;;
24261;SDS011;12385;51.412;5.540;2023-04-07T02:28:14;48.33;;;22.88;;
24261;SDS011;12385;51.412;5.540;2023-04-07T02:30:40;45.08;;;24.90;;
24261;SDS011;12385;51.412;5.540;2023-04-07T02:33:05;49.95;;;24.65;;
24261;SDS011;12385;51.412;5.540;2023-04-07T02:35:31;49.00;;;24.38;;
24261;SDS011;12385;51.412;5.540;2023-04-07T02:37:57;49.38;;;23.95;;
24261;SDS011;12385;51.412;5.540;2023-04-07T02:40:22;44.78;;;23.13;;
24261;SDS011;12385;51.412;5.540;2023-04-07T02:42:48;52.53;;;24.80;;
24261;SDS011;12385;51.412;5.540;2023-04-07T02:45:14;49.08;;;23.80;;
24261;SDS011;12385;51.412;5.540;2023-04-07T02:47:40;54.50;;;24.13;;
24261;SDS011;12385;51.412;5.540;2023-04-07T02:50:05;51.75;;;25.08;;
24261;SDS011;12385;51.412;5.540;2023-04-07T02:52:31;55.38;;;26.02;;
24261;SDS011;12385;51.412;5.540;2023-04-07T02:54:57;52.70;;;25.15;;
24261;SDS011;12385;51.412;5.540;2023-04-07T02:57:23;58.08;;;25.65;;
24261;SDS011;12385;51.412;5.540;2023-04-07T02:59:48;54.13;;;24.60;;
24261;SDS011;12385;51.412;5.540;2023-04-07T03:02:14;51.78;;;23.63;;
24261;SDS011;12385;51.412;5.540;2023-04-07T03:04:40;44.38;;;21.52;;
24261;SDS011;12385;51.412;5.540;2023-04-07T03:07:05;37.83;;;20.70;;
24261;SDS011;12385;51.412;5.540;2023-04-07T03:09:31;38.53;;;18.83;;
24261;SDS011;12385;51.412;5.540;2023-04-07T03:11:58;33.05;;;16.17;;
24261;SDS011;12385;51.412;5.540;2023-04-07T03:14:23;29.45;;;16.05;;
24261;SDS011;12385;51.412;5.540;2023-04-07T03:16:49;32.20;;;16.40;;
24261;SDS011;12385;51.412;5.540;2023-04-07T03:19:15;33.90;;;16.20;;
24261;SDS011;12385;51.412;5.540;2023-04-07T03:21:40;32.53;;;16.65;;
24261;SDS011;12385;51.412;5.540;2023-04-07T03:24:07;30.30;;;16.70;;
24261;SDS011;12385;51.412;5.540;2023-04-07T03:26:32;29.85;;;14.57;;
24261;SDS011;12385;51.412;5.540;2023-04-07T03:28:58;27.98;;;14.88;;
24261;SDS011;12385;51.412;5.540;2023-04-07T03:31:24;34.70;;;16.58;;
24261;SDS011;12385;51.412;5.540;2023-04-07T03:33:51;33.05;;;16.65;;
24261;SDS011;12385;51.412;5.540;2023-04-07T03:36:16;34.40;;;15.80;;
24261;SDS011;12385;51.412;5.540;2023-04-07T03:38:42;37.03;;;17.20;;
24261;SDS011;12385;51.412;5.540;2023-04-07T03:41:11;33.60;;;17.17;;
24261;SDS011;12385;51.412;5.540;2023-04-07T03:43:37;35.88;;;17.55;;
24261;SDS011;12385;51.412;5.540;2023-04-07T03:46:03;39.42;;;19.30;;
24261;SDS011;12385;51.412;5.540;2023-04-07T03:48:30;36.38;;;18.88;;
24261;SDS011;12385;51.412;5.540;2023-04-07T03:50:56;42.85;;;21.15;;
24261;SDS011;12385;51.412;5.540;2023-04-07T03:53:21;44.53;;;20.85;;
24261;SDS011;12385;51.412;5.540;2023-04-07T03:55:48;48.25;;;22.05;;
24261;SDS011;12385;51.412;5.540;2023-04-07T03:58:14;47.05;;;21.38;;
24261;SDS011;12385;51.412;5.540;2023-04-07T04:00:40;49.47;;;22.45;;
24261;SDS011;12385;51.412;5.540;2023-04-07T04:03:06;47.33;;;23.00;;
24261;SDS011;12385;51.412;5.540;2023-04-07T04:05:32;43.25;;;22.27;;
24261;SDS011;12385;51.412;5.540;2023-04-07T04:07:58;51.20;;;24.02;;
24261;SDS011;12385;51.412;5.540;2023-04-07T04:10:25;50.97;;;22.73;;
24261;SDS011;12385;51.412;5.540;2023-04-07T04:12:51;46.83;;;23.00;;
24261;SDS011;12385;51.412;5.540;2023-04-07T04:15:16;49.58;;;23.65;;
24261;SDS011;12385;51.412;5.540;2023-04-07T04:17:42;52.38;;;24.33;;
24261;SDS011;12385;51.412;5.540;2023-04-07T04:20:08;55.78;;;23.30;;
24261;SDS011;12385;51.412;5.540;2023-04-07T04:22:34;59.08;;;23.80;;
24261;SDS011;12385;51.412;5.540;2023-04-07T04:25:00;50.60;;;22.95;;
24261;SDS011;12385;51.412;5.540;2023-04-07T04:27:27;58.35;;;24.65;;
24261;SDS011;12385;51.412;5.540;2023-04-07T04:29:52;51.35;;;24.23;;
24261;SDS011;12385;51.412;5.540;2023-04-07T04:32:18;55.38;;;24.83;;
24261;SDS011;12385;51.412;5.540;2023-04-07T04:34:45;55.50;;;24.02;;
24261;SDS011;12385;51.412;5.540;2023-04-07T04:37:13;57.05;;;24.98;;
24261;SDS011;12385;51.412;5.540;2023-04-07T04:39:39;50.65;;;23.13;;
24261;SDS011;12385;51.412;5.540;2023-04-07T04:42:08;57.47;;;23.75;;
24261;SDS011;12385;51.412;5.540;2023-04-07T04:44:34;52.53;;;23.65;;
24261;SDS011;12385;51.412;5.540;2023-04-07T04:47:01;66.53;;;24.45;;
24261;SDS011;12385;51.412;5.540;2023-04-07T04:49:27;53.70;;;22.98;;
24261;SDS011;12385;51.412;5.540;2023-04-07T04:51:53;57.83;;;23.45;;
24261;SDS011;12385;51.412;5.540;2023-04-07T04:54:18;50.53;;;23.08;;
24261;SDS011;12385;51.412;5.540;2023-04-07T04:56:44;61.50;;;23.77;;
24261;SDS011;12385;51.412;5.540;2023-04-07T04:59:10;52.95;;;23.08;;
24261;SDS011;12385;51.412;5.540;2023-04-07T05:01:36;62.78;;;23.65;;
24261;SDS011;12385;51.412;5.540;2023-04-07T05:04:03;64.82;;;24.70;;
24261;SDS011;12385;51.412;5.540;2023-04-07T05:06:28;61.00;;;24.95;;
24261;SDS011;12385;51.412;5.540;2023-04-07T05:08:54;59.05;;;24.10;;
24261;SDS011;12385;51.412;5.540;2023-04-07T05:11:19;61.67;;;24.83;;
24261;SDS011;12385;51.412;5.540;2023-04-07T05:13:46;61.78;;;24.48;;
24261;SDS011;12385;51.412;5.540;2023-04-07T05:16:12;66.93;;;24.50;;
24261;SDS011;12385;51.412;5.540;2023-04-07T05:18:37;62.75;;;23.48;;
24261;SDS011;12385;51.412;5.540;2023-04-07T05:21:03;65.15;;;24.02;;
24261;SDS011;12385;51.412;5.540;2023-04-07T05:23:29;54.67;;;22.58;;
24261;SDS011;12385;51.412;5.540;2023-04-07T05:25:55;58.88;;;23.63;;
24261;SDS011;12385;51.412;5.540;2023-04-07T05:28:21;60.53;;;22.80;;
24261;SDS011;12385;51.412;5.540;2023-04-07T05:30:47;64.32;;;23.45;;
24261;SDS011;12385;51.412;5.540;2023-04-07T05:33:13;59.55;;;23.00;;
24261;SDS011;12385;51.412;5.540;2023-04-07T05:35:38;51.65;;;22.60;;
24261;SDS011;12385;51.412;5.540;2023-04-07T05:38:04;57.78;;;23.75;;
24261;SDS011;12385;51.412;5.540;2023-04-07T05:40:30;53.47;;;21.88;;
24261;SDS011;12385;51.412;5.540;2023-04-07T05:42:56;55.55;;;22.80;;
24261;SDS011;12385;51.412;5.540;2023-04-07T05:45:21;58.55;;;23.08;;
24261;SDS011;12385;51.412;5.540;2023-04-07T05:47:47;59.17;;;23.73;;
24261;SDS011;12385;51.412;5.540;2023-04-07T05:50:15;61.97;;;24.05;;
24261;SDS011;12385;51.412;5.540;2023-04-07T05:52:41;58.13;;;24.98;;
24261;SDS011;12385;51.412;5.540;2023-04-07T05:55:07;55.80;;;23.52;;
24261;SDS011;12385;51.412;5.540;2023-04-07T05:57:33;58.88;;;24.65;;
24261;SDS011;12385;51.412;5.540;2023-04-07T05:59:58;61.75;;;27.23;;
24261;SDS011;12385;51.412;5.540;2023-04-07T06:02:24;74.35;;;27.80;;
24261;SDS011;12385;51.412;5.540;2023-04-07T06:04:51;73.32;;;27.63;;
24261;SDS011;12385;51.412;5.540;2023-04-07T06:07:16;66.20;;;28.85;;
24261;SDS011;12385;51.412;5.540;2023-04-07T06:09:42;68.15;;;27.90;;
24261;SDS011;12385;51.412;5.540;2023-04-07T06:12:08;64.25;;;27.95;;
24261;SDS011;12385;51.412;5.540;2023-04-07T06:14:36;62.22;;;28.10;;
24261;SDS011;12385;51.412;5.540;2023-04-07T06:17:01;66.38;;;27.90;;
24261;SDS011;12385;51.412;5.540;2023-04-07T06:19:27;68.10;;;28.40;;
24261;SDS011;12385;51.412;5.540;2023-04-07T06:21:53;69.57;;;27.48;;
24261;SDS011;12385;51.412;5.540;2023-04-07T06:24:18;66.93;;;28.48;;
24261;SDS011;12385;51.412;5.540;2023-04-07T06:26:46;63.83;;;29.25;;
24261;SDS011;12385;51.412;5.540;2023-04-07T06:29:13;64.88;;;28.48;;
24261;SDS011;12385;51.412;5.540;2023-04-07T06:34:07;73.15;;;28.98;;
24261;SDS011;12385;51.412;5.540;2023-04-07T06:36:33;65.55;;;28.83;;
24261;SDS011;12385;51.412;5.540;2023-04-07T06:38:59;62.75;;;27.73;;
24261;SDS011;12385;51.412;5.540;2023-04-07T06:41:25;61.00;;;27.15;;
24261;SDS011;12385;51.412;5.540;2023-04-07T06:43:50;63.30;;;27.02;;
24261;SDS011;12385;51.412;5.540;2023-04-07T06:46:17;57.85;;;27.80;;
24261;SDS011;12385;51.412;5.540;2023-04-07T06:48:43;61.80;;;27.23;;
24261;SDS011;12385;51.412;5.540;2023-04-07T06:51:09;61.72;;;27.00;;
24261;SDS011;12385;51.412;5.540;2023-04-07T06:53:35;60.10;;;27.05;;
24261;SDS011;12385;51.412;5.540;2023-04-07T06:56:07;58.67;;;27.17;;
24261;SDS011;12385;51.412;5.540;2023-04-07T06:58:34;55.83;;;26.05;;
24261;SDS011;12385;51.412;5.540;2023-04-07T07:01:01;51.45;;;25.27;;
24261;SDS011;12385;51.412;5.540;2023-04-07T07:03:28;52.25;;;24.65;;
24261;SDS011;12385;51.412;5.540;2023-04-07T07:05:54;53.00;;;24.90;;
24261;SDS011;12385;51.412;5.540;2023-04-07T07:08:23;61.70;;;25.15;;
24261;SDS011;12385;51.412;5.540;2023-04-07T07:10:50;57.15;;;25.48;;
24261;SDS011;12385;51.412;5.540;2023-04-07T07:13:17;56.25;;;25.50;;
24261;SDS011;12385;51.412;5.540;2023-04-07T07:15:43;49.17;;;24.17;;
24261;SDS011;12385;51.412;5.540;2023-04-07T07:18:09;48.13;;;24.60;;
24261;SDS011;12385;51.412;5.540;2023-04-07T07:20:35;50.47;;;24.75;;
24261;SDS011;12385;51.412;5.540;2023-04-07T07:23:04;49.88;;;23.52;;
24261;SDS011;12385;51.412;5.540;2023-04-07T07:25:30;44.83;;;22.63;;
24261;SDS011;12385;51.412;5.540;2023-04-07T07:27:55;46.28;;;22.13;;
24261;SDS011;12385;51.412;5.540;2023-04-07T07:30:21;39.17;;;20.38;;
24261;SDS011;12385;51.412;5.540;2023-04-07T07:35:18;35.25;;;18.52;;
24261;SDS011;12385;51.412;5.540;2023-04-07T07:37:44;40.70;;;19.98;;
24261;SDS011;12385;51.412;5.540;2023-04-07T07:40:12;37.15;;;18.27;;
24261;SDS011;12385;51.412;5.540;2023-04-07T07:42:38;34.88;;;18.05;;
24261;SDS011;12385;51.412;5.540;2023-04-07T07:45:04;28.98;;;16.40;;
24261;SDS011;12385;51.412;5.540;2023-04-07T07:47:31;28.63;;;16.38;;
24261;SDS011;12385;51.412;5.540;2023-04-07T07:49:57;29.63;;;15.52;;
24261;SDS011;12385;51.412;5.540;2023-04-07T07:52:22;25.23;;;12.60;;
24261;SDS011;12385;51.412;5.540;2023-04-07T07:54:50;25.25;;;12.18;;
24261;SDS011;12385;51.412;5.540;2023-04-07T07:57:15;23.83;;;12.25;;
24261;SDS011;12385;51.412;5.540;2023-04-07T07:59:41;20.50;;;10.98;;
24261;SDS011;12385;51.412;5.540;2023-04-07T08:02:08;23.38;;;10.90;;
24261;SDS011;12385;51.412;5.540;2023-04-07T08:04:35;22.77;;;10.82;;
24261;SDS011;12385;51.412;5.540;2023-04-07T08:07:02;17.30;;;9.93;;
24261;SDS011;12385;51.412;5.540;2023-04-07T08:09:28;14.95;;;8.88;;
24261;SDS011;12385;51.412;5.540;2023-04-07T08:11:54;13.90;;;7.80;;
24261;SDS011;12385;51.412;5.540;2023-04-07T08:14:20;15.52;;;6.53;;
24261;SDS011;12385;51.412;5.540;2023-04-07T08:16:46;12.98;;;5.55;;
24261;SDS011;12385;51.412;5.540;2023-04-07T08:19:12;13.07;;;5.10;;
24261;SDS011;12385;51.412;5.540;2023-04-07T08:21:38;11.93;;;5.32;;
24261;SDS011;12385;51.412;5.540;2023-04-07T08:24:04;14.45;;;6.25;;
24261;SDS011;12385;51.412;5.540;2023-04-07T08:26:30;12.80;;;5.57;;
24261;SDS011;12385;51.412;5.540;2023-04-07T08:28:56;13.88;;;6.45;;
24261;SDS011;12385;51.412;5.540;2023-04-07T08:31:24;13.13;;;5.68;;
24261;SDS011;12385;51.412;5.540;2023-04-07T08:33:50;12.30;;;5.40;;
24261;SDS011;12385;51.412;5.540;2023-04-07T08:36:21;12.18;;;5.15;;
24261;SDS011;12385;51.412;5.540;2023-04-07T08:38:46;11.65;;;5.80;;
24261;SDS011;12385;51.412;5.540;2023-04-07T08:41:13;11.30;;;4.57;;
24261;SDS011;12385;51.412;5.540;2023-04-07T08:43:44;8.02;;;3.13;;
24261;SDS011;12385;51.412;5.540;2023-04-07T08:46:14;9.23;;;2.70;;
24261;SDS011;12385;51.412;5.540;2023-04-07T08:48:41;6.63;;;2.80;;
24261;SDS011;12385;51.412;5.540;2023-04-07T08:51:08;7.75;;;3.10;;
24261;SDS011;12385;51.412;5.540;2023-04-07T08:53:47;8.20;;;3.38;;
24261;SDS011;12385;51.412;5.540;2023-04-07T08:56:16;8.48;;;3.28;;
24261;SDS011;12385;51.412;5.540;2023-04-07T08:58:43;9.30;;;3.22;;
24261;SDS011;12385;51.412;5.540;2023-04-07T09:01:10;7.63;;;3.50;;
24261;SDS011;12385;51.412;5.540;2023-04-07T09:03:37;7.50;;;3.55;;
24261;SDS011;12385;51.412;5.540;2023-04-07T09:06:03;9.35;;;3.55;;
24261;SDS011;12385;51.412;5.540;2023-04-07T09:08:29;9.68;;;3.70;;
24261;SDS011;12385;51.412;5.540;2023-04-07T09:10:57;11.13;;;4.90;;
24261;SDS011;12385;51.412;5.540;2023-04-07T09:13:23;15.18;;;5.47;;
24261;SDS011;12385;51.412;5.540;2023-04-07T09:15:50;10.35;;;5.13;;
24261;SDS011;12385;51.412;5.540;2023-04-07T09:18:16;13.55;;;4.07;;
24261;SDS011;12385;51.412;5.540;2023-04-07T09:23:39;9.43;;;3.00;;
24261;SDS011;12385;51.412;5.540;2023-04-07T09:28:57;11.50;;;3.00;;
24261;SDS011;12385;51.412;5.540;2023-04-07T09:34:25;11.63;;;3.13;;
24261;SDS011;12385;51.412;5.540;2023-04-07T09:36:56;8.43;;;2.30;;
24261;SDS011;12385;51.412;5.540;2023-04-07T09:39:22;10.90;;;2.80;;
24261;SDS011;12385;51.412;5.540;2023-04-07T09:41:48;9.07;;;2.60;;
24261;SDS011;12385;51.412;5.540;2023-04-07T09:44:20;7.25;;;2.30;;
24261;SDS011;12385;51.412;5.540;2023-04-07T09:46:53;6.18;;;2.30;;
24261;SDS011;12385;51.412;5.540;2023-04-07T09:49:20;6.13;;;1.90;;
24261;SDS011;12385;51.412;5.540;2023-04-07T09:51:54;7.65;;;1.80;;
24261;SDS011;12385;51.412;5.540;2023-04-07T09:54:31;6.82;;;2.10;;
24261;SDS011;12385;51.412;5.540;2023-04-07T09:56:58;5.40;;;1.90;;
24261;SDS011;12385;51.412;5.540;2023-04-07T09:59:32;9.07;;;2.35;;
24261;SDS011;12385;51.412;5.540;2023-04-07T10:01:59;7.90;;;2.55;;
24261;SDS011;12385;51.412;5.540;2023-04-07T10:04:26;5.18;;;2.40;;
24261;SDS011;12385;51.412;5.540;2023-04-07T10:06:57;7.95;;;2.30;;
24261;SDS011;12385;51.412;5.540;2023-04-07T10:09:25;5.70;;;2.10;;
24261;SDS011;12385;51.412;5.540;2023-04-07T10:11:52;8.90;;;2.25;;
24261;SDS011;12385;51.412;5.540;2023-04-07T10:16:55;11.45;;;2.38;;
24261;SDS011;12385;51.412;5.540;2023-04-07T10:19:21;9.05;;;2.15;;
24261;SDS011;12385;51.412;5.540;2023-04-07T10:21:50;8.43;;;2.30;;
24261;SDS011;12385;51.412;5.540;2023-04-07T10:27:13;6.88;;;2.20;;
24261;SDS011;12385;51.412;5.540;2023-04-07T10:29:42;10.40;;;2.60;;
24261;SDS011;12385;51.412;5.540;2023-04-07T10:37:12;6.78;;;2.08;;
24261;SDS011;12385;51.412;5.540;2023-04-07T10:39:41;9.73;;;2.60;;
24261;SDS011;12385;51.412;5.540;2023-04-07T10:42:33;14.20;;;2.67;;
24261;SDS011;12385;51.412;5.540;2023-04-07T10:45:03;11.30;;;2.42;;
24261;SDS011;12385;51.412;5.540;2023-04-07T10:47:32;10.85;;;2.78;;
24261;SDS011;12385;51.412;5.540;2023-04-07T10:50:40;13.07;;;3.10;;
24261;SDS011;12385;51.412;5.540;2023-04-07T10:52:48;14.55;;;3.08;;
24261;SDS011;12385;51.412;5.540;2023-04-07T11:03:39;18.20;;;3.58;;
24261;SDS011;12385;51.412;5.540;2023-04-07T11:06:07;15.80;;;3.55;;
24261;SDS011;12385;51.412;5.540;2023-04-07T11:08:35;10.32;;;3.03;;
24261;SDS011;12385;51.412;5.540;2023-04-07T11:11:02;11.80;;;3.10;;
24261;SDS011;12385;51.412;5.540;2023-04-07T11:13:46;8.63;;;2.63;;
24261;SDS011;12385;51.412;5.540;2023-04-07T11:16:13;8.10;;;2.33;;
24261;SDS011;12385;51.412;5.540;2023-04-07T11:18:40;8.93;;;2.65;;
24261;SDS011;12385;51.412;5.540;2023-04-07T11:21:06;12.55;;;2.70;;
24261;SDS011;12385;51.412;5.540;2023-04-07T11:23:42;9.15;;;2.60;;
24261;SDS011;12385;51.412;5.540;2023-04-07T11:26:11;12.10;;;2.80;;
24261;SDS011;12385;51.412;5.540;2023-04-07T11:28:44;9.02;;;2.78;;
24261;SDS011;12385;51.412;5.540;2023-04-07T11:31:25;9.82;;;2.20;;
24261;SDS011;12385;51.412;5.540;2023-04-07T11:33:54;8.93;;;2.50;;
24261;SDS011;12385;51.412;5.540;2023-04-07T11:36:40;10.65;;;2.40;;
24261;SDS011;12385;51.412;5.540;2023-04-07T11:39:18;8.77;;;2.78;;
24261;SDS011;12385;51.412;5.540;2023-04-07T11:41:45;7.63;;;2.50;;
24261;SDS011;12385;51.412;5.540;2023-04-07T11:44:12;13.50;;;2.85;;
24261;SDS011;12385;51.412;5.540;2023-04-07T11:46:54;9.98;;;3.33;;
24261;SDS011;12385;51.412;5.540;2023-04-07T11:49:21;10.30;;;3.17;;
24261;SDS011;12385;51.412;5.540;2023-04-07T11:51:48;10.30;;;2.38;;
24261;SDS011;12385;51.412;5.540;2023-04-07T11:54:45;6.93;;;2.05;;
24261;SDS011;12385;51.412;5.540;2023-04-07T11:57:11;7.10;;;2.08;;
24261;SDS011;12385;51.412;5.540;2023-04-07T11:59:38;7.45;;;1.70;;
24261;SDS011;12385;51.412;5.540;2023-04-07T12:02:05;5.38;;;1.88;;
24261;SDS011;12385;51.412;5.540;2023-04-07T12:04:32;9.35;;;2.28;;
24261;SDS011;12385;51.412;5.540;2023-04-07T12:07:10;9.18;;;2.20;;
24261;SDS011;12385;51.412;5.540;2023-04-07T12:09:36;8.60;;;2.33;;
24261;SDS011;12385;51.412;5.540;2023-04-07T12:12:02;8.85;;;2.22;;
24261;SDS011;12385;51.412;5.540;2023-04-07T12:14:30;9.90;;;2.42;;
24261;SDS011;12385;51.412;5.540;2023-04-07T12:16:56;8.52;;;2.15;;
24261;SDS011;12385;51.412;5.540;2023-04-07T12:19:26;7.80;;;2.13;;
24261;SDS011;12385;51.412;5.540;2023-04-07T12:21:53;6.82;;;2.35;;
24261;SDS011;12385;51.412;5.540;2023-04-07T12:24:20;8.15;;;2.30;;
24261;SDS011;12385;51.412;5.540;2023-04-07T12:26:46;9.65;;;2.70;;
24261;SDS011;12385;51.412;5.540;2023-04-07T12:29:12;13.02;;;2.90;;
24261;SDS011;12385;51.412;5.540;2023-04-07T12:31:38;10.50;;;2.97;;
24261;SDS011;12385;51.412;5.540;2023-04-07T12:34:04;10.65;;;2.80;;
24261;SDS011;12385;51.412;5.540;2023-04-07T12:36:29;15.95;;;3.03;;
24261;SDS011;12385;51.412;5.540;2023-04-07T12:38:55;11.05;;;2.90;;
24261;SDS011;12385;51.412;5.540;2023-04-07T12:41:21;9.63;;;2.40;;
24261;SDS011;12385;51.412;5.540;2023-04-07T12:43:48;13.43;;;3.00;;
24261;SDS011;12385;51.412;5.540;2023-04-07T12:46:14;9.05;;;2.88;;
24261;SDS011;12385;51.412;5.540;2023-04-07T12:48:40;13.75;;;2.80;;
24261;SDS011;12385;51.412;5.540;2023-04-07T12:51:06;13.35;;;2.83;;
24261;SDS011;12385;51.412;5.540;2023-04-07T12:53:32;14.02;;;2.50;;
24261;SDS011;12385;51.412;5.540;2023-04-07T12:55:58;8.45;;;2.28;;
24261;SDS011;12385;51.412;5.540;2023-04-07T12:58:24;12.85;;;2.70;;
24261;SDS011;12385;51.412;5.540;2023-04-07T13:00:51;15.25;;;2.55;;
24261;SDS011;12385;51.412;5.540;2023-04-07T13:03:17;16.40;;;2.63;;
24261;SDS011;12385;51.412;5.540;2023-04-07T13:05:43;10.45;;;2.60;;
24261;SDS011;12385;51.412;5.540;2023-04-07T13:08:10;7.47;;;2.08;;
24261;SDS011;12385;51.412;5.540;2023-04-07T13:10:36;8.55;;;2.17;;
24261;SDS011;12385;51.412;5.540;2023-04-07T13:13:02;8.70;;;2.05;;
24261;SDS011;12385;51.412;5.540;2023-04-07T13:15:27;9.23;;;2.63;;
24261;SDS011;12385;51.412;5.540;2023-04-07T13:17:53;12.02;;;1.73;;
24261;SDS011;12385;51.412;5.540;2023-04-07T13:20:19;12.63;;;2.75;;
24261;SDS011;12385;51.412;5.540;2023-04-07T13:22:46;12.57;;;2.58;;
24261;SDS011;12385;51.412;5.540;2023-04-07T13:25:12;9.45;;;2.38;;
24261;SDS011;12385;51.412;5.540;2023-04-07T13:27:38;12.13;;;2.53;;
24261;SDS011;12385;51.412;5.540;2023-04-07T13:30:03;11.32;;;2.50;;
24261;SDS011;12385;51.412;5.540;2023-04-07T13:32:30;10.38;;;2.40;;
24261;SDS011;12385;51.412;5.540;2023-04-07T13:34:55;15.60;;;3.00;;
24261;SDS011;12385;51.412;5.540;2023-04-07T13:37:21;12.38;;;2.50;;
24261;SDS011;12385;51.412;5.540;2023-04-07T13:39:47;11.77;;;2.28;;
24261;SDS011;12385;51.412;5.540;2023-04-07T13:42:13;8.13;;;2.20;;
24261;SDS011;12385;51.412;5.540;2023-04-07T13:44:41;8.70;;;2.20;;
24261;SDS011;12385;51.412;5.540;2023-04-07T13:47:09;11.55;;;2.10;;
24261;SDS011;12385;51.412;5.540;2023-04-07T13:49:35;10.07;;;2.20;;
24261;SDS011;12385;51.412;5.540;2023-04-07T13:52:00;10.45;;;2.20;;
24261;SDS011;12385;51.412;5.540;2023-04-07T13:54:26;12.57;;;2.38;;
24261;SDS011;12385;51.412;5.540;2023-04-07T13:56:52;11.80;;;2.67;;
24261;SDS011;12385;51.412;5.540;2023-04-07T13:59:17;11.43;;;2.38;;
24261;SDS011;12385;51.412;5.540;2023-04-07T14:01:43;12.90;;;2.58;;
24261;SDS011;12385;51.412;5.540;2023-04-07T14:04:09;14.52;;;2.25;;
24261;SDS011;12385;51.412;5.540;2023-04-07T14:06:34;17.65;;;2.72;;
24261;SDS011;12385;51.412;5.540;2023-04-07T14:09:01;10.90;;;2.05;;
24261;SDS011;12385;51.412;5.540;2023-04-07T14:11:27;10.85;;;2.25;;
24261;SDS011;12385;51.412;5.540;2023-04-07T14:13:53;16.13;;;2.42;;
24261;SDS011;12385;51.412;5.540;2023-04-07T14:16:20;10.93;;;2.35;;
24261;SDS011;12385;51.412;5.540;2023-04-07T14:18:46;10.57;;;2.03;;
24261;SDS011;12385;51.412;5.540;2023-04-07T14:21:13;7.85;;;2.20;;
24261;SDS011;12385;51.412;5.540;2023-04-07T14:23:39;15.38;;;2.38;;
24261;SDS011;12385;51.412;5.540;2023-04-07T14:26:09;13.63;;;2.15;;
24261;SDS011;12385;51.412;5.540;2023-04-07T14:28:35;12.05;;;2.15;;
24261;SDS011;12385;51.412;5.540;2023-04-07T14:31:01;12.45;;;2.08;;
24261;SDS011;12385;51.412;5.540;2023-04-07T14:33:27;8.70;;;2.00;;
24261;SDS011;12385;51.412;5.540;2023-04-07T14:35:53;14.38;;;2.70;;
24261;SDS011;12385;51.412;5.540;2023-04-07T14:38:18;13.25;;;2.38;;
24261;SDS011;12385;51.412;5.540;2023-04-07T14:40:48;11.80;;;2.00;;
24261;SDS011;12385;51.412;5.540;2023-04-07T14:43:14;12.25;;;2.10;;
24261;SDS011;12385;51.412;5.540;2023-04-07T14:45:39;11.55;;;2.45;;
24261;SDS011;12385;51.412;5.540;2023-04-07T14:48:05;11.85;;;2.20;;
24261;SDS011;12385;51.412;5.540;2023-04-07T14:50:31;12.30;;;2.22;;
24261;SDS011;12385;51.412;5.540;2023-04-07T14:52:58;9.57;;;2.17;;
24261;SDS011;12385;51.412;5.540;2023-04-07T14:55:24;10.98;;;2.13;;
24261;SDS011;12385;51.412;5.540;2023-04-07T14:57:49;9.35;;;2.10;;
24261;SDS011;12385;51.412;5.540;2023-04-07T15:00:15;10.77;;;2.40;;
24261;SDS011;12385;51.412;5.540;2023-04-07T15:02:40;8.93;;;2.10;;
24261;SDS011;12385;51.412;5.540;2023-04-07T15:05:06;7.50;;;2.15;;
24261;SDS011;12385;51.412;5.540;2023-04-07T15:07:34;12.00;;;2.97;;
24261;SDS011;12385;51.412;5.540;2023-04-07T15:10:00;19.15;;;4.50;;